Time;durP1;ratioP1;P1;durP2;ratioP2;P2;SDS_P1;SDS_P2;PMS_P1;PMS_P2;Temp;Humidity;BMP_temperature;BMP_pressure;BME280_temperature;BME280_humidity;BME280_pressure;Samples;Min_cycle;Max_cycle;Signal;HPM_P1;HPM_P2
2023/08/09 00:01:15;;;;;;;4.25;2.83;;;;;;;31.72;82.23;101136.25;143729;572;47004;-73
2023/08/09 00:03:41;;;;;;;5.80;2.92;;;;;;;31.72;82.49;101133.47;143731;596;47006;-72
2023/08/09 00:06:08;;;;;;;3.42;2.90;;;;;;;31.69;82.30;101132.13;143734;661;47000;-73
2023/08/09 00:08:34;;;;;;;5.45;2.80;;;;;;;31.69;83.18;101139.66;143729;630;47011;-72
2023/08/09 00:11:01;;;;;;;4.22;2.75;;;;;;;31.67;82.63;101140.00;143730;572;47002;-72
2023/08/09 00:13:27;;;;;;;7.05;3.20;;;;;;;31.64;84.27;101135.09;143731;606;46006;-72
2023/08/09 00:15:53;;;;;;;3.30;2.58;;;;;;;31.57;85.14;101123.69;143730;567;47002;-72
2023/08/09 00:18:20;;;;;;;4.53;2.95;;;;;;;31.57;86.27;101129.25;143730;578;46008;-72
2023/08/09 00:20:46;;;;;;;5.87;2.90;;;;;;;31.53;86.82;101125.50;143730;618;47004;-72
2023/08/09 00:23:14;;;;;;;6.00;3.33;;;;;;;31.52;84.98;101129.41;143727;577;47006;-72
2023/08/09 00:25:41;;;;;;;9.13;3.20;;;;;;;31.51;85.42;101127.78;143729;670;47002;-72
2023/08/09 00:28:07;;;;;;;5.15;2.80;;;;;;;31.51;84.82;101138.87;143729;574;47010;-73
2023/08/09 00:30:34;;;;;;;4.03;2.92;;;;;;;31.51;85.64;101141.66;143728;669;47006;-73
2023/08/09 00:33:00;;;;;;;3.45;2.87;;;;;;;31.53;85.03;101139.38;143729;570;47008;-73
2023/08/09 00:35:27;;;;;;;5.90;2.97;;;;;;;31.52;88.32;101143.28;143730;603;47004;-73
2023/08/09 00:37:53;;;;;;;3.00;2.70;;;;;;;31.51;87.25;101141.66;143720;584;47929;-73
2023/08/09 00:40:20;;;;;;;5.72;2.65;;;;;;;31.49;87.50;101147.56;143722;651;47004;-73
2023/08/09 00:42:46;;;;;;;5.55;3.25;;;;;;;31.47;88.37;101147.06;143722;598;47008;-72
2023/08/09 00:45:13;;;;;;;3.55;3.00;;;;;;;31.48;89.63;101150.69;143722;665;47004;-73
2023/08/09 00:47:39;;;;;;;3.72;2.60;;;;;;;31.44;86.44;101143.00;143722;641;47010;-73
2023/08/09 00:50:06;;;;;;;5.78;2.70;;;;;;;31.46;86.63;101139.88;143720;669;47928;-73
2023/08/09 00:52:33;;;;;;;4.40;2.40;;;;;;;31.46;85.93;101139.88;143722;579;47008;-73
2023/08/09 00:55:00;;;;;;;3.75;2.80;;;;;;;31.43;85.95;101146.91;143723;580;47004;-73
2023/08/09 00:57:27;;;;;;;2.90;2.35;;;;;;;31.45;87.65;101143.81;143724;574;46012;-73
2023/08/09 00:59:53;;;;;;;3.47;2.83;;;;;;;31.50;82.27;101146.41;143722;579;47007;-73
2023/08/09 01:02:19;;;;;;;3.85;2.30;;;;;;;31.57;78.35;101134.78;143724;647;47008;-73
2023/08/09 01:04:46;;;;;;;5.82;2.53;;;;;;;31.56;77.29;101135.94;143725;595;47004;-73
2023/08/09 01:07:53;;;;;;;8.40;3.58;;;;;;;31.49;76.84;101139.22;143723;573;47011;-74
2023/08/09 01:10:29;;;;;;;6.65;3.20;;;;;;;31.51;76.37;101136.09;143721;586;47008;-74
2023/08/09 01:13:03;;;;;;;6.20;2.78;;;;;;;31.43;75.34;101149.69;143724;596;46008;-75
2023/08/09 01:15:33;;;;;;;7.60;4.22;;;;;;;31.36;74.66;101149.37;143719;583;48002;-73
2023/08/09 01:18:02;;;;;;;3.08;2.28;;;;;;;31.28;74.06;101141.91;143723;568;47010;-74
2023/08/09 01:20:29;;;;;;;6.90;4.70;;;;;;;31.13;73.49;101140.44;143720;575;47006;-72
2023/08/09 01:23:11;;;;;;;11.05;4.95;;;;;;;31.02;72.30;101142.72;143721;581;47004;-74
2023/08/09 01:25:38;;;;;;;4.28;2.72;;;;;;;31.09;72.64;101145.81;143722;595;47004;-73
2023/08/09 01:28:06;;;;;;;8.32;4.37;;;;;;;31.05;70.82;101141.28;143723;592;47011;-73
2023/08/09 01:30:32;;;;;;;4.78;2.75;;;;;;;31.05;70.29;101144.03;143721;569;47006;-72
2023/08/09 01:32:59;;;;;;;5.68;2.30;;;;;;;31.12;72.93;101142.41;143725;583;47008;-73
2023/08/09 01:35:29;;;;;;;7.25;2.70;;;;;;;31.18;73.28;101150.56;143726;643;46008;-72
2023/08/09 01:38:05;;;;;;;4.10;2.50;;;;;;;31.24;74.05;101152.03;143723;576;47013;-72
2023/08/09 01:40:32;;;;;;;3.22;1.87;;;;;;;31.33;72.49;101160.34;143722;567;47006;-72
2023/08/09 01:43:00;;;;;;;4.57;2.20;;;;;;;31.38;72.17;101152.66;143723;635;47008;-71
2023/08/09 01:45:30;;;;;;;3.53;2.10;;;;;;;31.30;69.62;101151.53;143722;568;47004;-71
2023/08/09 01:48:06;;;;;;;6.47;2.08;;;;;;;31.34;71.99;101156.41;143723;574;47012;-72
2023/08/09 01:50:35;;;;;;;4.57;2.17;;;;;;;31.36;74.43;101154.94;143719;669;47006;-72
2023/08/09 01:53:01;;;;;;;5.37;2.20;;;;;;;31.36;72.74;101154.12;143721;666;47004;-72
2023/08/09 01:55:28;;;;;;;2.70;2.28;;;;;;;31.36;73.42;101168.00;143728;644;46025;-72
2023/08/09 01:57:54;;;;;;;3.97;2.00;;;;;;;31.25;78.43;101162.78;143725;659;46021;-72
2023/08/09 02:00:24;;;;;;;6.43;2.60;;;;;;;31.22;76.42;101160.69;143720;592;47929;-72
2023/08/09 02:02:52;;;;;;;3.72;2.47;;;;;;;31.24;81.90;101161.16;143721;576;47008;-72
2023/08/09 02:05:19;;;;;;;2.17;1.70;;;;;;;31.28;79.75;101164.09;143727;573;46009;-72
2023/08/09 02:07:46;;;;;;;5.03;2.22;;;;;;;31.27;76.27;101166.06;143722;576;47013;-72
2023/08/09 02:10:13;;;;;;;5.55;2.20;;;;;;;31.25;73.81;101168.34;143721;583;47006;-73
2023/08/09 02:12:40;;;;;;;2.92;1.98;;;;;;;31.11;75.15;101173.22;143724;617;47008;-73
2023/08/09 02:15:07;;;;;;;3.85;1.85;;;;;;;31.18;75.23;101172.75;143722;590;47004;-74
2023/08/09 02:17:35;;;;;;;2.83;2.10;;;;;;;31.11;78.85;101178.78;143722;572;47012;-72
2023/08/09 02:20:04;;;;;;;2.92;1.90;;;;;;;31.11;79.41;101182.37;143720;586;47006;-72
2023/08/09 02:22:39;;;;;;;3.35;2.10;;;;;;;31.08;80.06;101180.25;143722;580;47008;-72
2023/08/09 02:25:10;;;;;;;4.35;1.92;;;;;;;31.04;81.45;101172.94;143721;637;47004;-72
2023/08/09 02:27:36;;;;;;;2.20;1.80;;;;;;;31.00;82.24;101187.44;143725;636;46030;-72
2023/08/09 02:30:03;;;;;;;4.05;2.00;;;;;;;30.99;83.56;101193.31;143723;589;47011;-72
2023/08/09 02:32:31;;;;;;;4.43;2.05;;;;;;;31.05;83.40;101202.31;143721;566;47008;-72
2023/08/09 02:34:58;;;;;;;7.00;2.55;;;;;;;31.03;85.13;101202.59;143725;636;47004;-72
2023/08/09 02:37:24;;;;;;;3.03;2.20;;;;;;;31.06;83.81;101210.28;143722;607;47013;-72
2023/08/09 02:39:51;;;;;;;5.72;1.90;;;;;;;31.06;85.31;101207.50;143722;624;47010;-72
2023/08/09 02:42:17;;;;;;;6.37;2.08;;;;;;;31.05;82.71;101211.41;143723;594;46017;-72
2023/08/09 02:44:44;;;;;;;3.15;2.08;;;;;;;31.09;82.28;101206.03;143726;609;47006;-72
2023/08/09 02:47:10;;;;;;;4.60;2.03;;;;;;;31.13;82.15;101209.78;143723;663;47012;-72
2023/08/09 02:49:37;;;;;;;3.40;2.30;;;;;;;31.11;83.97;101207.34;143719;619;47006;-73
2023/08/09 02:52:04;;;;;;;3.47;2.03;;;;;;;31.06;84.43;101218.59;143723;577;47009;-73
2023/08/09 02:54:30;;;;;;;3.75;2.20;;;;;;;30.99;88.85;101213.56;143726;601;47004;-72
2023/08/09 02:56:56;;;;;;;3.45;2.00;;;;;;;30.98;94.91;101213.84;143723;583;47011;-72
2023/08/09 02:59:22;;;;;;;2.97;1.85;;;;;;;30.96;96.30;101221.72;143725;585;47006;-72
2023/08/09 03:01:49;;;;;;;2.42;1.65;;;;;;;30.94;98.98;101221.22;143723;609;47008;-73
2023/08/09 03:04:15;;;;;;;5.40;2.25;;;;;;;30.91;99.86;101219.09;143723;644;47006;-73
2023/08/09 03:06:42;;;;;;;4.00;2.00;;;;;;;30.92;98.66;101221.53;143721;567;47013;-73
2023/08/09 03:09:09;;;;;;;3.42;1.90;;;;;;;30.95;100.00;101223.66;143723;608;47006;-71
2023/08/09 03:11:35;;;;;;;2.30;2.10;;;;;;;30.94;100.00;101230.34;143725;611;46008;-71
2023/08/09 03:14:01;;;;;;;4.75;2.20;;;;;;;30.94;100.00;101229.53;143727;610;46013;-72
2023/08/09 03:16:27;;;;;;;3.83;2.10;;;;;;;30.96;100.00;101232.81;143724;614;47012;-72
2023/08/09 03:18:54;;;;;;;7.05;1.95;;;;;;;31.02;100.00;101239.00;143720;620;47006;-73
2023/08/09 03:21:20;;;;;;;3.90;2.20;;;;;;;31.09;97.42;101242.94;143725;641;46025;-73
2023/08/09 03:23:46;;;;;;;5.57;2.00;;;;;;;31.11;100.00;101246.19;143723;647;47006;-73
2023/08/09 03:26:13;;;;;;;4.75;2.00;;;;;;;31.06;100.00;101257.44;143722;594;47010;-70
2023/08/09 03:28:42;;;;;;;7.05;2.22;;;;;;;31.08;100.00;101259.88;143720;572;47929;-74
2023/08/09 03:31:09;;;;;;;4.28;2.35;;;;;;;31.09;100.00;101262.34;143721;718;47008;-72
2023/08/09 03:33:36;;;;;;;6.55;2.08;;;;;;;31.12;100.00;101263.66;143722;568;47006;-74
2023/08/09 03:36:02;;;;;;;5.00;2.10;;;;;;;31.07;100.00;101272.13;143725;683;46012;-75
2023/08/09 03:38:29;;;;;;;5.25;2.55;;;;;;;31.03;100.00;101276.72;143720;579;47006;-74
2023/08/09 03:40:55;;;;;;;8.55;2.60;;;;;;;30.93;100.00;101277.84;143725;566;47008;-73
2023/08/09 03:43:21;;;;;;;6.93;2.47;;;;;;;30.80;100.00;101290.69;143720;573;47006;-73
2023/08/09 03:45:48;;;;;;;3.65;2.47;;;;;;;30.72;100.00;101292.31;143723;588;47010;-73
2023/08/09 03:48:14;;;;;;;5.25;2.30;;;;;;;30.69;100.00;101298.50;143723;593;47006;-73
2023/08/09 03:50:41;;;;;;;5.35;2.78;;;;;;;30.49;100.00;101295.13;143723;588;47008;-74
2023/08/09 03:53:07;;;;;;;5.78;2.40;;;;;;;30.44;100.00;101300.84;143725;615;47004;-73
2023/08/09 03:55:33;;;;;;;4.40;2.60;;;;;;;30.47;100.00;101316.81;143723;578;47010;-73
2023/08/09 03:58:00;;;;;;;8.38;2.60;;;;;;;30.40;100.00;101306.19;143720;618;47006;-72
2023/08/09 04:00:26;;;;;;;6.40;2.70;;;;;;;30.34;100.00;101315.81;143726;594;46008;-72
2023/08/09 04:02:52;;;;;;;5.70;2.40;;;;;;;30.21;100.00;101317.53;143723;604;47006;-72
2023/08/09 04:05:19;;;;;;;6.03;2.72;;;;;;;30.12;100.00;101324.16;143720;583;47929;-73
2023/08/09 04:07:46;;;;;;;9.85;3.25;;;;;;;30.05;100.00;101319.88;143722;617;47006;-72
2023/08/09 04:10:13;;;;;;;10.30;3.62;;;;;;;29.95;100.00;101325.66;143724;750;47008;-71
2023/08/09 04:12:39;;;;;;;10.95;3.40;;;;;;;29.84;100.00;101327.03;143721;587;47006;-73
2023/08/09 04:15:06;;;;;;;6.30;2.80;;;;;;;29.77;100.00;101324.72;143722;647;47013;-72
2023/08/09 04:17:33;;;;;;;4.75;2.72;;;;;;;29.69;100.00;101328.25;143723;579;47004;-72
2023/08/09 04:20:00;;;;;;;5.40;3.10;;;;;;;29.61;100.00;101325.09;143725;569;46009;-73
2023/08/09 04:22:26;;;;;;;7.70;3.55;;;;;;;29.59;100.00;101330.12;143722;608;47004;-74
2023/08/09 04:24:53;;;;;;;4.80;2.47;;;;;;;29.59;100.00;101326.56;143722;586;47004;-74
2023/08/09 04:27:19;;;;;;;6.95;2.90;;;;;;;29.53;100.00;101327.78;143721;608;47007;-74
2023/08/09 04:29:45;;;;;;;4.93;4.37;;;;;;;29.55;100.00;101336.59;143723;588;46016;-73
2023/08/09 04:32:12;;;;;;;8.68;3.00;;;;;;;29.56;100.00;101341.00;143721;569;47006;-72
2023/08/09 04:34:39;;;;;;;5.80;2.95;;;;;;;29.57;100.00;101342.66;143722;628;47011;-75
2023/08/09 04:37:05;;;;;;;6.95;3.10;;;;;;;29.52;100.00;101353.84;143719;733;47006;-73
2023/08/09 04:39:32;;;;;;;9.55;3.00;;;;;;;29.43;100.00;101362.91;143720;716;47004;-71
2023/08/09 04:41:58;;;;;;;6.10;2.72;;;;;;;29.36;100.00;101368.03;143726;596;47004;-74
2023/08/09 04:44:25;;;;;;;4.78;3.03;;;;;;;29.33;100.00;101365.84;143726;595;46029;-74
2023/08/09 04:46:52;;;;;;;4.75;2.70;;;;;;;29.28;100.00;101366.78;143723;583;47006;-74
2023/08/09 04:49:18;;;;;;;3.85;2.65;;;;;;;29.08;100.00;101372.75;143722;597;47004;-76
2023/08/09 04:51:44;;;;;;;4.90;2.75;;;;;;;29.06;100.00;101375.84;143722;567;47006;-75
2023/08/09 04:54:11;;;;;;;4.22;2.40;;;;;;;29.01;100.00;101378.69;143723;707;47010;-75
2023/08/09 04:56:38;;;;;;;4.03;2.30;;;;;;;28.99;100.00;101392.00;143722;592;47006;-75
2023/08/09 04:59:04;;;;;;;4.85;2.72;;;;;;;29.02;100.00;101389.47;143722;574;47004;-74
2023/08/09 05:01:31;;;;;;;5.68;3.10;;;;;;;29.01;100.00;101389.75;143724;590;47006;-75
2023/08/09 05:03:57;;;;;;;5.50;2.50;;;;;;;28.80;100.00;101392.94;143723;567;47012;-76
2023/08/09 05:06:23;;;;;;;6.20;2.37;;;;;;;28.77;100.00;101393.53;143721;580;47006;-75
2023/08/09 05:08:50;;;;;;;5.30;2.55;;;;;;;28.75;100.00;101387.53;143725;604;47008;-75
2023/08/09 05:11:16;;;;;;;5.20;2.60;;;;;;;28.70;100.00;101393.13;143724;567;47006;-75
2023/08/09 05:13:44;;;;;;;3.28;2.10;;;;;;;28.67;100.00;101396.47;143718;606;47013;-70
2023/08/09 05:16:12;;;;;;;5.62;2.55;;;;;;;28.65;100.00;101404.25;143726;569;46006;-70
2023/08/09 05:18:38;;;;;;;4.93;2.55;;;;;;;28.66;100.00;101403.13;143725;599;47008;-71
2023/08/09 05:21:06;;;;;;;6.53;2.67;;;;;;;28.65;100.00;101412.53;143723;599;46010;-71
2023/08/09 05:23:32;;;;;;;5.03;2.53;;;;;;;28.66;100.00;101419.72;143722;585;47010;-74
2023/08/09 05:25:59;;;;;;;5.15;3.00;;;;;;;28.65;100.00;101418.91;143722;583;47006;-73
2023/08/09 05:28:26;;;;;;;4.20;2.80;;;;;;;28.59;100.00;101422.88;143724;613;46008;-74
2023/08/09 05:30:52;;;;;;;4.50;2.75;;;;;;;28.50;100.00;101430.25;143725;575;47004;-75
2023/08/09 05:33:18;;;;;;;4.12;2.83;;;;;;;28.51;100.00;101429.94;143725;623;47008;-74
2023/08/09 05:35:44;;;;;;;4.25;2.90;;;;;;;28.54;100.00;101428.50;143722;573;47004;-74
2023/08/09 05:38:11;;;;;;;4.43;2.50;;;;;;;28.39;100.00;101424.06;143724;573;47006;-71
2023/08/09 05:40:37;;;;;;;3.50;2.47;;;;;;;28.28;100.00;101427.00;143728;612;47000;-72
2023/08/09 05:43:04;;;;;;;4.25;2.33;;;;;;;28.11;100.00;101426.72;143724;615;46931;-73
2023/08/09 05:45:30;;;;;;;4.43;2.40;;;;;;;28.20;100.00;101424.94;143721;613;47004;-72
2023/08/09 05:47:56;;;;;;;5.25;2.50;;;;;;;28.28;100.00;101431.72;143724;610;46006;-72
2023/08/09 05:50:23;;;;;;;3.72;2.40;;;;;;;28.29;100.00;101433.34;143726;740;47004;-73
2023/08/09 05:52:49;;;;;;;4.53;2.45;;;;;;;28.26;100.00;101432.00;143722;656;47008;-73
2023/08/09 05:55:16;;;;;;;4.72;2.90;;;;;;;28.25;100.00;101432.31;143722;609;47004;-72
2023/08/09 05:57:42;;;;;;;4.22;3.03;;;;;;;28.27;100.00;101436.41;143724;663;46006;-72
2023/08/09 06:00:15;;;;;;;3.42;2.20;;;;;;;28.31;100.00;101444.94;143723;575;47002;-73
2023/08/09 06:02:43;;;;;;;3.33;1.90;;;;;;;28.33;100.00;101442.66;143724;702;47008;-72
2023/08/09 06:05:27;;;;;;;4.05;2.00;;;;;;;28.34;100.00;101443.50;143722;620;47005;-72
2023/08/09 06:07:55;;;;;;;3.70;1.75;;;;;;;28.32;100.00;101441.03;143724;572;46006;-72
2023/08/09 06:10:23;;;;;;;3.55;2.17;;;;;;;28.35;100.00;101439.59;143723;626;47002;-72
2023/08/09 06:12:50;;;;;;;3.78;1.70;;;;;;;28.34;100.00;101437.97;143725;634;47008;-72
2023/08/09 06:15:17;;;;;;;3.72;2.40;;;;;;;28.29;100.00;101436.13;143723;654;47004;-71
2023/08/09 06:17:43;;;;;;;3.97;2.45;;;;;;;28.29;100.00;101450.75;143724;637;47006;-72
2023/08/09 06:20:13;;;;;;;6.70;2.00;;;;;;;28.25;100.00;101446.13;143725;697;47004;-72
2023/08/09 06:22:43;;;;;;;3.72;1.87;;;;;;;28.24;100.00;101445.28;143725;620;47010;-72
2023/08/09 06:25:09;;;;;;;3.03;1.50;;;;;;;28.19;100.00;101444.56;143724;575;47930;-72
2023/08/09 06:27:36;;;;;;;4.20;1.60;;;;;;;28.22;100.00;101441.19;143726;691;47007;-71
2023/08/09 06:30:04;;;;;;;2.58;1.85;;;;;;;28.27;100.00;101444.69;143728;595;47006;-72
2023/08/09 06:32:30;;;;;;;3.33;1.48;;;;;;;28.29;100.00;101442.44;143725;620;47010;-71
2023/08/09 06:34:57;;;;;;;2.53;1.67;;;;;;;28.32;100.00;101440.22;143723;597;47004;-71
2023/08/09 06:37:23;;;;;;;3.42;2.28;;;;;;;28.35;100.00;101443.19;143727;688;46020;-72
2023/08/09 06:39:49;;;;;;;4.70;1.90;;;;;;;28.37;100.00;101437.37;143723;698;47011;-71
2023/08/09 06:42:16;;;;;;;3.47;2.33;;;;;;;28.35;100.00;101434.09;143724;590;47010;-70
2023/08/09 06:44:43;;;;;;;5.60;2.17;;;;;;;28.22;100.00;101450.31;143721;630;47004;-71
2023/08/09 06:47:10;;;;;;;4.28;2.50;;;;;;;28.21;100.00;101445.91;143727;677;46006;-72
2023/08/09 06:49:37;;;;;;;5.12;2.45;;;;;;;28.21;100.00;101448.69;143725;731;47002;-72
2023/08/09 06:52:04;;;;;;;4.05;2.20;;;;;;;28.26;100.00;101453.28;143725;586;47010;-72
2023/08/09 06:54:30;;;;;;;4.62;2.40;;;;;;;28.34;100.00;101444.31;143726;599;46012;-72
2023/08/09 06:56:56;;;;;;;3.60;2.42;;;;;;;28.21;100.00;101445.09;143726;592;47007;-73
2023/08/09 06:59:23;;;;;;;6.03;4.43;;;;;;;28.12;100.00;101443.00;143725;661;47004;-73
2023/08/09 07:01:49;;;;;;;5.93;3.20;;;;;;;28.18;100.00;101443.75;143725;602;47004;-73
2023/08/09 07:04:16;;;;;;;4.10;2.70;;;;;;;28.27;100.00;101449.41;143727;674;46015;-74
2023/08/09 07:06:42;;;;;;;4.57;2.10;;;;;;;28.32;100.00;101452.09;143726;583;47006;-73
2023/08/09 07:09:11;;;;;;;3.92;2.12;;;;;;;28.37;100.00;101448.41;143724;572;47002;-74
2023/08/09 07:11:37;;;;;;;3.10;1.98;;;;;;;28.37;100.00;101451.19;143725;621;47010;-73
2023/08/09 07:14:04;;;;;;;3.08;1.92;;;;;;;28.42;100.00;101445.56;143721;568;47008;-74
2023/08/09 07:16:30;;;;;;;2.33;1.90;;;;;;;28.52;100.00;101447.31;143726;592;47006;-74
2023/08/09 07:18:56;;;;;;;2.45;1.77;;;;;;;28.55;100.00;101449.47;143726;582;47004;-74
2023/08/09 07:21:23;;;;;;;4.03;1.73;;;;;;;28.51;100.00;101445.69;143725;589;47004;-74
2023/08/09 07:23:49;;;;;;;3.42;1.98;;;;;;;28.62;100.00;101452.69;143723;592;47004;-74
2023/08/09 07:26:15;;;;;;;2.50;1.70;;;;;;;28.58;100.00;101459.94;143725;658;47006;-72
2023/08/09 07:28:42;;;;;;;2.95;1.67;;;;;;;28.65;100.00;101446.56;143724;634;47004;-73
2023/08/09 07:31:28;;;;;;;3.95;1.90;;;;;;;28.77;100.00;101453.56;143725;573;47008;-73
2023/08/09 07:33:55;;;;;;;3.40;1.90;;;;;;;28.82;100.00;101454.28;143722;598;46018;-73
2023/08/09 07:36:21;;;;;;;2.92;1.75;;;;;;;28.87;100.00;101447.81;143722;588;47006;-73
2023/08/09 07:38:48;;;;;;;2.80;1.60;;;;;;;28.99;100.00;101456.44;143729;580;46008;-73
2023/08/09 07:41:14;;;;;;;2.70;1.90;;;;;;;29.07;100.00;101451.31;143726;605;46012;-73
2023/08/09 07:43:40;;;;;;;3.53;1.52;;;;;;;29.15;100.00;101447.84;143723;582;47006;-74
2023/08/09 07:46:07;;;;;;;5.40;1.48;;;;;;;29.12;100.00;101456.75;143727;625;46008;-73
2023/08/09 07:48:34;;;;;;;4.57;1.62;;;;;;;29.19;100.00;101454.41;143724;598;47004;-74
2023/08/09 07:51:00;;;;;;;3.47;1.87;;;;;;;29.17;100.00;101451.13;143724;573;47010;-73
2023/08/09 07:53:27;;;;;;;4.43;1.35;;;;;;;29.19;100.00;101446.91;143725;607;46010;-74
2023/08/09 07:55:53;;;;;;;2.25;1.10;;;;;;;29.20;100.00;101443.03;143726;614;47008;-74
2023/08/09 07:58:19;;;;;;;5.32;1.20;;;;;;;29.20;100.00;101445.78;143727;695;47004;-74
2023/08/09 08:00:46;;;;;;;2.03;1.20;;;;;;;29.24;100.00;101450.72;143726;596;46033;-74
2023/08/09 08:03:13;;;;;;;1.55;1.25;;;;;;;29.30;100.00;101449.50;143723;591;47006;-73
2023/08/09 08:05:40;;;;;;;3.42;1.85;;;;;;;29.38;100.00;101450.75;143725;572;47931;-74
2023/08/09 08:08:06;;;;;;;3.58;1.70;;;;;;;29.37;100.00;101454.63;143725;631;47004;-74
2023/08/09 08:10:33;;;;;;;3.37;1.45;;;;;;;29.42;100.00;101458.09;143723;572;47008;-74
2023/08/09 08:12:59;;;;;;;2.85;1.70;;;;;;;29.42;100.00;101460.87;143722;634;47006;-74
2023/08/09 08:15:25;;;;;;;2.50;1.60;;;;;;;29.43;100.00;101462.50;143726;585;47008;-74
2023/08/09 08:17:52;;;;;;;2.85;1.90;;;;;;;29.40;100.00;101460.37;143726;569;47004;-74
2023/08/09 08:20:20;;;;;;;4.30;1.65;;;;;;;29.37;100.00;101460.97;143724;590;47013;-74
2023/08/09 08:22:48;;;;;;;3.58;1.42;;;;;;;29.37;100.00;101455.44;143721;569;47006;-73
2023/08/09 08:25:15;;;;;;;3.35;1.60;;;;;;;29.34;100.00;101459.63;143727;583;46008;-74
2023/08/09 08:27:47;;;;;;;3.90;1.83;;;;;;;29.38;100.00;101459.84;143725;666;47004;-74
2023/08/09 08:30:17;;;;;;;2.62;2.05;;;;;;;29.34;100.00;101459.63;143726;579;46012;-74
2023/08/09 08:32:44;;;;;;;3.12;1.65;;;;;;;29.36;100.00;101469.59;143724;609;47010;-74
2023/08/09 08:35:11;;;;;;;4.32;1.83;;;;;;;29.33;100.00;101463.50;143721;585;47008;-73
2023/08/09 08:37:38;;;;;;;4.95;2.55;;;;;;;29.40;100.00;101451.22;143722;580;47004;-74
2023/08/09 08:40:17;;;;;;;3.50;1.70;;;;;;;29.39;100.00;101455.94;143724;595;47012;-69
2023/08/09 08:42:45;;;;;;;4.78;2.00;;;;;;;29.45;100.00;101457.50;143723;671;47006;-73
2023/08/09 08:45:14;;;;;;;3.08;1.52;;;;;;;29.52;100.00;101448.78;143727;568;46008;-71
2023/08/09 08:47:42;;;;;;;4.15;2.08;;;;;;;29.64;100.00;101439.94;143724;567;47006;-71
2023/08/09 08:50:09;;;;;;;4.75;1.92;;;;;;;29.75;100.00;101448.78;143725;573;47007;-72
2023/08/09 08:52:39;;;;;;;2.60;1.55;;;;;;;29.86;100.00;101446.63;143725;639;47008;-71
2023/08/09 08:55:10;;;;;;;2.08;1.37;;;;;;;29.98;100.00;101446.09;143727;605;46024;-72
2023/08/09 08:57:40;;;;;;;2.53;1.70;;;;;;;30.04;100.00;101429.03;143725;570;47004;-71
2023/08/09 09:00:16;;;;;;;5.78;1.70;;;;;;;30.25;100.00;101434.06;143724;572;46016;-71
2023/08/09 09:02:46;;;;;;;3.45;1.92;;;;;;;30.22;100.00;101430.00;143721;562;47006;-71
2023/08/09 09:05:14;;;;;;;3.50;1.77;;;;;;;30.32;100.00;101417.00;143728;597;46020;-70
2023/08/09 09:07:50;;;;;;;3.22;1.90;;;;;;;30.48;100.00;101418.22;143724;640;47006;-70
2023/08/09 09:10:19;;;;;;;5.47;1.58;;;;;;;30.53;100.00;101420.88;143724;583;47009;-69
2023/08/09 09:12:46;;;;;;;4.10;2.15;;;;;;;30.63;100.00;101428.12;143723;587;47006;-69
2023/08/09 09:15:14;;;;;;;3.10;1.73;;;;;;;30.73;100.00;101418.72;143727;593;46008;-69
2023/08/09 09:17:42;;;;;;;3.30;2.03;;;;;;;30.77;100.00;101425.28;143724;677;47005;-69
2023/08/09 09:20:27;;;;;;;2.60;1.83;;;;;;;30.83;100.00;101425.94;143724;572;47010;-69
2023/08/09 09:22:54;;;;;;;8.23;2.30;;;;;;;30.94;100.00;101415.38;143722;598;47006;-69
2023/08/09 09:25:22;;;;;;;2.50;1.90;;;;;;;31.08;100.00;101412.47;143727;608;46024;-70
2023/08/09 09:27:53;;;;;;;3.55;1.73;;;;;;;31.12;100.00;101416.25;143725;592;47004;-68
2023/08/09 09:30:21;;;;;;;3.70;2.10;;;;;;;31.20;100.00;101411.88;143725;576;47010;-69
2023/08/09 09:33:05;;;;;;;5.80;1.80;;;;;;;31.33;100.00;101405.38;143723;653;47007;-69
2023/08/09 09:35:33;;;;;;;4.72;3.17;;;;;;;31.46;100.00;101411.94;143725;589;46931;-70
2023/08/09 09:38:00;;;;;;;4.78;2.05;;;;;;;31.55;100.00;101410.00;143724;588;47004;-68
2023/08/09 09:40:34;;;;;;;3.65;2.17;;;;;;;31.65;100.00;101411.62;143724;573;46935;-69
2023/08/09 09:43:01;;;;;;;3.30;1.80;;;;;;;31.72;100.00;101402.84;143723;598;47006;-68
2023/08/09 09:45:29;;;;;;;7.90;1.80;;;;;;;31.81;100.00;101397.28;143724;583;47008;-68
2023/08/09 09:48:00;;;;;;;5.30;1.45;;;;;;;31.87;100.00;101393.16;143723;594;47006;-68
2023/08/09 09:50:34;;;;;;;4.70;1.98;;;;;;;31.81;100.00;101397.28;143723;619;47004;-68
2023/08/09 09:53:00;;;;;;;;;;;;;;;31.76;100.00;101384.38;143725;982;47006;-71
2023/08/09 09:55:28;;;;;;;8.52;2.47;;;;;;;31.81;100.00;101388.94;143730;580;47010;-69
2023/08/09 09:57:56;;;;;;;4.60;2.30;;;;;;;31.81;100.00;101380.62;143723;589;48002;-66
2023/08/09 10:00:23;;;;;;;4.78;2.25;;;;;;;31.80;100.00;101385.34;143727;668;46029;-67
2023/08/09 10:02:51;;;;;;;4.72;2.42;;;;;;;31.59;100.00;101393.50;143725;586;47006;-67
2023/08/09 10:05:21;;;;;;;6.00;2.08;;;;;;;31.51;100.00;101391.50;143723;578;47008;-69
2023/08/09 10:07:51;;;;;;;2.95;1.92;;;;;;;31.53;100.00;101386.44;143726;602;47004;-69
2023/08/09 10:10:18;;;;;;;3.47;1.92;;;;;;;31.47;100.00;101373.91;143727;598;46012;-66
2023/08/09 10:12:48;;;;;;;3.75;2.12;;;;;;;31.31;100.00;101379.94;143723;592;47006;-74
2023/08/09 10:15:18;;;;;;;3.92;1.70;;;;;;;31.00;100.00;101378.00;143725;600;47008;-70
2023/08/09 10:17:49;;;;;;;3.85;1.85;;;;;;;30.82;100.00;101383.50;143725;572;47006;-69
2023/08/09 10:20:18;;;;;;;4.22;1.73;;;;;;;30.89;100.00;101373.91;143725;572;47010;-72
2023/08/09 10:22:49;;;;;;;2.55;1.67;;;;;;;31.08;100.00;101374.47;143726;740;47010;-69
2023/08/09 10:25:15;;;;;;;5.18;1.92;;;;;;;30.76;100.00;101379.28;143725;610;47008;-70
2023/08/09 10:27:49;;;;;;;3.78;2.15;;;;;;;30.93;100.00;101370.16;143726;581;47006;-69
2023/08/09 10:30:19;;;;;;;3.05;1.50;;;;;;;31.09;100.00;101369.72;143724;586;47012;-71
2023/08/09 10:32:58;;;;;;;6.30;1.95;;;;;;;31.22;100.00;101362.44;143723;595;47007;-69
2023/08/09 10:35:54;;;;;;;2.33;1.40;;;;;;;31.49;100.00;101366.88;143725;663;46930;-69
2023/08/09 10:38:39;;;;;;;3.30;1.50;;;;;;;31.85;100.00;101353.81;143754;577;46004;-70
2023/08/09 10:41:10;;;;;;;2.10;1.65;;;;;;;31.96;100.00;101357.88;143756;603;45012;-68
2023/08/09 10:43:37;;;;;;;36.92;24.48;;;;;;;32.18;100.00;101344.91;143753;679;45010;-69
2023/08/09 10:46:26;;;;;;;18.62;12.52;;;;;;;32.61;100.00;101354.28;143730;600;47008;-70
2023/08/09 10:48:54;;;;;;;3.72;1.65;;;;;;;32.75;100.00;101352.06;143733;620;47004;-69
2023/08/09 10:51:24;;;;;;;3.15;1.70;;;;;;;32.96;100.00;101346.56;143732;594;47010;-70
2023/08/09 10:54:06;;;;;;;2.55;1.45;;;;;;;33.03;100.00;101348.00;143727;599;49006;-68
2023/08/09 10:56:43;;;;;;;3.40;1.75;;;;;;;32.98;100.00;101346.25;143729;638;47004;-70
2023/08/09 10:59:30;;;;;;;3.95;1.58;;;;;;;32.92;100.00;101347.59;143733;575;47004;-70
2023/08/09 11:01:57;;;;;;;5.57;1.42;;;;;;;32.99;100.00;101338.69;143733;569;46933;-67
2023/08/09 11:04:24;;;;;;;2.25;1.50;;;;;;;32.83;100.00;101338.50;143733;595;47006;-67
2023/08/09 11:06:51;;;;;;;2.47;1.50;;;;;;;32.61;100.00;101340.38;143732;579;47008;-70
2023/08/09 11:09:22;;;;;;;2.62;1.30;;;;;;;32.46;100.00;101339.78;143728;570;47003;-68
2023/08/09 11:11:50;;;;;;;4.15;1.27;;;;;;;32.29;100.00;101328.72;143733;660;47010;-68
2023/08/09 11:14:19;;;;;;;2.37;1.40;;;;;;;32.11;100.00;101337.09;143727;609;47006;-70
2023/08/09 11:16:46;;;;;;;3.00;1.45;;;;;;;32.18;100.00;101334.59;143731;573;47002;-69
2023/08/09 11:19:17;;;;;;;2.62;1.25;;;;;;;32.24;100.00;101340.78;143736;568;46008;-69
2023/08/09 11:21:48;;;;;;;4.95;1.60;;;;;;;32.12;100.00;101344.28;143731;583;46923;-69
2023/08/09 11:24:20;;;;;;;4.03;1.48;;;;;;;31.83;100.00;101333.88;143730;635;47007;-71